createdAt,value
2022-07-26T00:01:25.883Z,99262.91
2022-07-26T00:06:35.423Z,99259.77
2022-07-26T00:11:38.733Z,99254.30
2022-07-26T00:16:42.269Z,99252.87
2022-07-26T00:21:45.661Z,99238.66
2022-07-26T00:26:48.972Z,99238.27
2022-07-26T00:31:52.369Z,99228.77
2022-07-26T00:36:55.798Z,99211.59
2022-07-26T00:41:59.109Z,99209.00
2022-07-26T00:47:02.523Z,99211.42
2022-07-26T00:52:10.542Z,99213.11
2022-07-26T00:57:15.395Z,99208.48
2022-07-26T01:02:19.279Z,99212.49
2022-07-26T01:07:23.551Z,99213.58
2022-07-26T01:12:26.860Z,99216.81
2022-07-26T01:17:30.273Z,99215.49
2022-07-26T01:22:33.685Z,99210.06
2022-07-26T01:27:39.801Z,99207.98
2022-07-26T01:32:43.177Z,99213.30
2022-07-26T01:37:47.102Z,99209.85
2022-07-26T01:42:50.514Z,99205.42
2022-07-26T01:47:54.131Z,99192.77
2022-07-26T01:52:57.443Z,99181.58
2022-07-26T01:58:00.856Z,99181.20
2022-07-26T02:03:04.328Z,99180.54
2022-07-26T02:08:07.989Z,99178.42
2022-07-26T02:13:16.113Z,99170.94
2022-07-26T02:18:19.631Z,99166.39
2022-07-26T02:23:24.891Z,99173.70
2022-07-26T02:28:28.706Z,99177.46
2022-07-26T02:33:32.017Z,99177.09
2022-07-26T02:38:35.431Z,99176.15
2022-07-26T02:43:38.845Z,99173.74
2022-07-26T02:48:45.234Z,99167.06
2022-07-26T02:53:48.642Z,99158.81
2022-07-26T02:58:52.158Z,99151.43
2022-07-26T03:03:55.878Z,99154.88
2022-07-26T03:08:59.910Z,99175.04
2022-07-26T03:14:03.215Z,99184.83
2022-07-26T03:19:06.939Z,99169.17
2022-07-26T03:24:10.561Z,99165.08
2022-07-26T03:29:14.377Z,99152.56
2022-07-26T03:34:18.100Z,99148.10
2022-07-26T03:39:21.511Z,99155.13
2022-07-26T03:44:26.256Z,99151.08
2022-07-26T03:49:29.719Z,99154.92
2022-07-26T03:54:33.184Z,99149.20
2022-07-26T03:59:36.803Z,99151.94
2022-07-26T04:04:40.009Z,99155.59
2022-07-26T04:09:43.428Z,99144.16
2022-07-26T04:14:46.738Z,99138.18
2022-07-26T04:19:50.250Z,99130.17
2022-07-26T04:24:53.670Z,99138.73
2022-07-26T04:29:57.282Z,99138.59
2022-07-26T04:35:00.543Z,99156.89
2022-07-26T04:40:04.335Z,99181.88
2022-07-26T04:45:08.982Z,99200.23
2022-07-26T04:50:13.597Z,99201.48
2022-07-26T04:55:19.425Z,99199.67
2022-07-26T05:00:26.818Z,99201.01
2022-07-26T05:05:32.104Z,99203.83
2022-07-26T05:10:37.695Z,99215.05
2022-07-26T05:15:42.925Z,99198.17
2022-07-26T05:20:48.207Z,99193.98
2022-07-26T05:25:51.519Z,99205.52
2022-07-26T05:30:55.067Z,99202.20
2022-07-26T05:35:58.652Z,99193.98
2022-07-26T05:41:02.065Z,99199.54
2022-07-26T05:46:09.455Z,99207.27
2022-07-26T05:51:13.300Z,99219.64
2022-07-26T05:56:16.604Z,99222.84
2022-07-26T06:01:20.022Z,99219.56
2022-07-26T06:06:23.432Z,99213.60
2022-07-26T06:11:26.853Z,99233.76
2022-07-26T06:16:30.258Z,99254.61
2022-07-26T06:21:33.671Z,99264.15
2022-07-26T06:26:37.192Z,99256.27
2022-07-26T06:31:41.051Z,99265.23
2022-07-26T06:36:44.833Z,99281.70
2022-07-26T06:41:48.656Z,99288.55
2022-07-26T06:46:52.069Z,99288.42
2022-07-26T06:51:58.248Z,99288.77
2022-07-26T06:57:01.511Z,99293.33
2022-07-26T07:02:06.153Z,99311.64
2022-07-26T07:07:09.574Z,99318.65
2022-07-26T07:12:13.089Z,99296.20
2022-07-26T07:17:20.531Z,99290.14
2022-07-26T07:22:24.255Z,99285.83
2022-07-26T07:27:28.489Z,99282.36
2022-07-26T07:32:32.977Z,99272.59
2022-07-26T07:37:53.809Z,99262.02
2022-07-26T07:42:58.802Z,99276.29
2022-07-26T07:48:02.279Z,99292.02
2022-07-26T07:53:05.730Z,99282.58
2022-07-26T07:58:09.349Z,99284.82
2022-07-26T08:03:13.170Z,99288.27
2022-07-26T08:08:22.028Z,99274.80
2022-07-26T08:13:26.193Z,99259.38
2022-07-26T08:18:30.475Z,99263.95
2022-07-26T08:23:34.195Z,99268.65
2022-07-26T08:28:47.245Z,99261.56
2022-07-26T08:33:51.670Z,99262.34
2022-07-26T08:38:56.212Z,99275.84
2022-07-26T08:44:08.476Z,99278.90
2022-07-26T08:49:17.433Z,99285.25
2022-07-26T08:54:23.755Z,99287.03
2022-07-26T08:59:27.225Z,99295.06
2022-07-26T09:04:35.391Z,99309.81
2022-07-26T09:09:57.135Z,99329.06
2022-07-26T09:15:02.471Z,99325.42
2022-07-26T09:20:14.886Z,99333.05
2022-07-26T09:25:22.945Z,99351.63
2022-07-26T09:30:28.048Z,99366.73
2022-07-26T09:35:52.304Z,99372.16
2022-07-26T09:40:58.656Z,99369.46
2022-07-26T09:46:07.602Z,99379.48
2022-07-26T09:51:11.449Z,99389.65
2022-07-26T09:56:15.062Z,99400.05
2022-07-26T10:01:18.402Z,99403.77
2022-07-26T10:06:26.092Z,99403.11
2022-07-26T10:11:43.016Z,99401.20
2022-07-26T10:16:46.330Z,99404.13
2022-07-26T10:21:51.074Z,99413.59
2022-07-26T10:26:54.383Z,99417.17
2022-07-26T10:32:00.674Z,99420.39
2022-07-26T10:37:07.315Z,99431.94
2022-07-26T10:42:11.743Z,99431.83
2022-07-26T10:47:18.844Z,99442.99
2022-07-26T10:52:28.158Z,99450.64
2022-07-26T10:57:42.964Z,99451.98
2022-07-26T11:02:54.887Z,99451.75
2022-07-26T11:08:05.304Z,99447.48
2022-07-26T11:13:16.304Z,99459.00
2022-07-26T11:18:25.361Z,99459.69
2022-07-26T11:23:41.058Z,99466.59
2022-07-26T11:28:59.467Z,99478.62
2022-07-26T11:34:04.875Z,99482.89
2022-07-26T11:39:14.432Z,99483.58
2022-07-26T11:44:20.816Z,99476.71
2022-07-26T11:54:55.091Z,99487.04
2022-07-26T12:00:00.048Z,99485.64
2022-07-26T12:05:22.208Z,99492.30
2022-07-26T12:10:26.320Z,99488.80
2022-07-26T12:15:52.404Z,99488.95
2022-07-26T12:21:04.648Z,99490.88
2022-07-26T12:26:28.887Z,99492.20
2022-07-26T12:31:34.429Z,99484.68
2022-07-26T12:36:38.680Z,99491.61
2022-07-26T12:41:45.574Z,99495.03
2022-07-26T12:46:49.794Z,99490.95
2022-07-26T12:51:53.223Z,99490.05
2022-07-26T12:56:56.326Z,99495.58
2022-07-26T13:02:00.136Z,99493.36
2022-07-26T13:07:05.855Z,99494.64
2022-07-26T13:12:10.522Z,99495.00
2022-07-26T13:17:13.964Z,99496.92
2022-07-26T13:22:17.385Z,99491.11
2022-07-26T13:27:20.801Z,99487.06
2022-07-26T13:32:24.111Z,99476.09
2022-07-26T13:37:27.319Z,99473.80
2022-07-26T13:42:30.836Z,99478.11
2022-07-26T13:47:34.254Z,99481.47
2022-07-26T13:52:37.668Z,99478.94
2022-07-26T13:57:49.569Z,99477.64
2022-07-26T14:03:01.026Z,99474.02
2022-07-26T14:08:04.754Z,99475.46
2022-07-26T14:13:09.131Z,99477.52
2022-07-26T14:18:12.442Z,99475.50
2022-07-26T14:23:15.755Z,99478.81
2022-07-26T14:28:19.167Z,99478.61
2022-07-26T14:33:22.482Z,99481.23
2022-07-26T14:38:29.954Z,99482.54
2022-07-26T14:43:33.707Z,99480.75
2022-07-26T14:48:53.505Z,99483.98
2022-07-26T14:53:57.636Z,99479.02
2022-07-26T14:59:00.919Z,99476.53
2022-07-26T15:04:05.376Z,99484.48
2022-07-26T15:09:08.698Z,99487.33
2022-07-26T15:14:12.313Z,99487.79
2022-07-26T15:19:16.135Z,99485.08
2022-07-26T15:24:19.447Z,99490.98
2022-07-26T15:29:26.444Z,99483.13
2022-07-26T15:34:29.756Z,99481.91
2022-07-26T15:39:33.168Z,99478.88
2022-07-26T15:44:41.483Z,99471.83
2022-07-26T15:49:44.910Z,99468.88
2022-07-26T15:54:48.322Z,99466.19
2022-07-26T15:59:51.686Z,99463.30
2022-07-26T16:04:55.046Z,99465.96
2022-07-26T16:09:58.561Z,99469.02
2022-07-26T16:15:01.874Z,99465.64
2022-07-26T16:20:05.968Z,99466.05
2022-07-26T16:25:10.395Z,99469.10
2022-07-26T16:30:15.241Z,99469.63
2022-07-26T16:35:18.508Z,99471.67
2022-07-26T16:40:22.087Z,99474.21
2022-07-26T16:45:25.527Z,99482.39
2022-07-26T16:50:28.941Z,99481.77
2022-07-26T16:55:32.148Z,99485.01
2022-07-26T17:00:35.523Z,99488.46
2022-07-26T17:05:38.976Z,99499.23
2022-07-26T17:10:42.592Z,99502.95
2022-07-26T17:15:46.179Z,99503.70
2022-07-26T17:20:49.729Z,99511.89
2022-07-26T17:25:53.242Z,99512.21
2022-07-26T17:30:56.655Z,99513.44
2022-07-26T17:36:03.291Z,99513.25
2022-07-26T17:41:07.783Z,99505.82
2022-07-26T17:46:11.158Z,99508.36
2022-07-26T17:51:16.249Z,99502.38
2022-07-26T17:56:19.456Z,99498.06
2022-07-26T18:01:22.904Z,99498.70
2022-07-26T18:06:26.394Z,99493.81
2022-07-26T18:11:29.902Z,99491.90
2022-07-26T18:16:34.039Z,99497.69
2022-07-26T18:21:37.443Z,99496.56
2022-07-26T18:26:42.294Z,99498.95
2022-07-26T18:31:47.295Z,99496.66
2022-07-26T18:36:50.551Z,99497.60
2022-07-26T18:41:55.093Z,99499.70
2022-07-26T18:46:58.425Z,99503.34
2022-07-26T18:52:08.387Z,99506.48
2022-07-26T18:57:12.501Z,99497.70
2022-07-26T19:02:16.117Z,99495.27
2022-07-26T19:07:19.536Z,99501.27
2022-07-26T19:12:22.841Z,99502.50
2022-07-26T19:17:27.744Z,99504.42
2022-07-26T19:22:33.416Z,99509.17
2022-07-26T19:27:37.895Z,99513.48
2022-07-26T19:32:42.433Z,99510.60
2022-07-26T19:37:46.564Z,99510.02
2022-07-26T19:42:50.493Z,99510.23
2022-07-26T19:47:53.800Z,99508.02
2022-07-26T19:52:57.110Z,99513.81
2022-07-26T19:58:00.627Z,99518.39
2022-07-26T20:03:04.804Z,99523.83
2022-07-26T20:08:08.173Z,99541.05
2022-07-26T20:13:11.583Z,99564.04
2022-07-26T20:18:15.206Z,99569.70
2022-07-26T20:23:18.716Z,99585.06
2022-07-26T20:28:22.233Z,99580.46
2022-07-26T20:33:27.077Z,99581.22
2022-07-26T20:38:30.544Z,99580.39
2022-07-26T20:43:34.415Z,99572.55
2022-07-26T20:48:37.953Z,99584.41
2022-07-26T20:53:42.064Z,99599.36
2022-07-26T20:58:46.072Z,99601.65
2022-07-26T21:03:49.916Z,99604.42
2022-07-26T21:08:53.531Z,99611.23
2022-07-26T21:13:57.159Z,99616.34
2022-07-26T21:19:01.855Z,99620.38
2022-07-26T21:24:06.680Z,99626.14
2022-07-26T21:29:10.247Z,99634.48
2022-07-26T21:34:13.948Z,99646.66
2022-07-26T21:39:17.595Z,99646.41
2022-07-26T21:44:20.906Z,99651.23
2022-07-26T21:49:24.319Z,99661.33
2022-07-26T21:54:27.837Z,99658.63
2022-07-26T21:59:31.144Z,99664.50
2022-07-26T22:04:34.504Z,99663.52
2022-07-26T22:09:37.869Z,99671.39
2022-07-26T22:14:41.180Z,99678.34
2022-07-26T22:19:44.595Z,99686.81
2022-07-26T22:24:47.902Z,99695.09
2022-07-26T22:29:51.625Z,99692.52
2022-07-26T22:34:55.040Z,99694.59
2022-07-26T22:39:58.348Z,99697.74
2022-07-26T22:45:01.761Z,99691.29
2022-07-26T22:50:06.709Z,99696.64
2022-07-26T22:55:12.600Z,99696.75
2022-07-26T23:00:18.384Z,99695.10
2022-07-26T23:05:21.766Z,99697.84
2022-07-26T23:10:31.114Z,99692.85
2022-07-26T23:15:34.528Z,99694.81
2022-07-26T23:20:37.840Z,99698.60
2022-07-26T23:25:41.152Z,99699.73
2022-07-26T23:30:44.464Z,99697.04
2022-07-26T23:35:47.985Z,99696.10
2022-07-26T23:40:51.285Z,99694.35
2022-07-26T23:45:54.597Z,99698.96
2022-07-26T23:50:57.930Z,99701.90
2022-07-26T23:56:01.221Z,99706.95
